Hauptseite
METAR-TAF:

METAR-TAF

Flughäfen :

Fliegerhorst Ingolstadt/Manching

Ingolstadt, Deutschland

Breite: 48-43N, Länge: 011-32E, Höhe: 367 m

Beobachtung

Neuester Wetterbericht von vor 33 Minuten, um 21:20 UTC
Wind 5 kt aus Süd/Südwest
Temperatur 22°C
Luftfeuchtigkeit 60%
Luftdruck 1012 hPa

METAR: ETSI 202120Z AUTO 21005KT //// // ////// 22/14 Q1012 ///

Zeit: 23:53 (21:53 UTC)

Prognose

Neuester Wetterbericht von vor 11 Stunden und 38 Minuten, um 10:15 UTC
Gültige Prognose vom 20 um 11 UTC bis 20 um 20 UTC
Wind 5 kt aus Ost
Sichtweite: 1120 m
Leicht bewölkt in der Höhe von 12000 ft
Aufgelockert bewölkt in der Höhe von 28000 ft

TAF: ETSI 201015Z 2011/2020 08005KT 9999 NSW FEW120 SCT280 CANCEL 1120

Wetterbeobachtungen und Prognosen von mehr als 4000 Flughäfen (METAR und TAF Bericht).

Die verfügbaren Stationen werden durch gelbe und rote Markierungen auf der Karte dargestellt.

Führen Sie die Maus auf sie, um den Namen der Station zu sehen.

Darauf klicken, um die Beobachtung von Wetterbeobachtungen und Prognosen zu sehen.

Um die Karte zu ändern : klicken Sie auf den grünen Tasten mit einem schwarzen Kreuz Zum Vergrößern, auf den grünen Button mit einem Gedankenstrich zu verkleinern, oder auf die grünen Pfeile für benachbarte Karten.


METAR-TAF: